createdAt,value
2018-12-13T00:01:47.229Z,30.99
2018-12-13T00:03:54.266Z,30.97
2018-12-13T00:06:00.976Z,30.15
2018-12-13T00:08:07.781Z,32.55
2018-12-13T00:10:14.703Z,32.33
2018-12-13T00:12:21.666Z,32.01
2018-12-13T00:14:28.427Z,32.90
2018-12-13T00:16:35.599Z,33.20
2018-12-13T00:18:42.336Z,32.71
2018-12-13T00:20:49.022Z,32.06
2018-12-13T00:22:56.104Z,31.99
2018-12-13T00:25:02.970Z,32.28
2018-12-13T00:27:09.782Z,32.51
2018-12-13T00:29:17.102Z,32.25
2018-12-13T00:31:24.130Z,32.66
2018-12-13T00:33:30.822Z,32.35
2018-12-13T00:35:37.841Z,32.45
2018-12-13T00:37:44.746Z,31.70
2018-12-13T00:39:51.520Z,31.11
2018-12-13T00:41:59.203Z,32.06
2018-12-13T00:44:06.993Z,31.88
2018-12-13T00:46:13.815Z,31.85
2018-12-13T00:48:20.712Z,30.89
2018-12-13T00:50:27.706Z,31.81
2018-12-13T00:52:34.421Z,32.80
2018-12-13T00:54:41.370Z,32.31
2018-12-13T00:56:48.217Z,31.59
2018-12-13T00:58:55.160Z,32.55
2018-12-13T01:01:02.889Z,31.93
2018-12-13T01:03:09.629Z,32.02
2018-12-13T01:05:16.574Z,32.82
2018-12-13T01:07:23.511Z,32.91
2018-12-13T01:09:30.632Z,33.56
2018-12-13T01:11:37.430Z,32.69
2018-12-13T01:13:44.613Z,33.08
2018-12-13T01:15:51.340Z,32.06
2018-12-13T01:17:58.659Z,32.07
2018-12-13T01:20:06.324Z,31.45
2018-12-13T01:22:13.279Z,31.83
2018-12-13T01:24:19.976Z,32.08
2018-12-13T01:26:26.950Z,32.37
2018-12-13T01:28:34.652Z,31.65
2018-12-13T01:30:41.513Z,32.88
2018-12-13T01:32:48.350Z,32.22
2018-12-13T01:34:55.177Z,32.74
2018-12-13T01:37:01.863Z,32.77
2018-12-13T01:39:09.254Z,32.52
2018-12-13T01:41:16.027Z,32.35
2018-12-13T01:43:23.147Z,31.53
2018-12-13T01:45:30.216Z,31.63
2018-12-13T01:47:37.121Z,31.23
2018-12-13T01:49:43.665Z,31.17
2018-12-13T01:51:50.591Z,31.48
2018-12-13T01:53:57.661Z,31.49
2018-12-13T01:56:04.935Z,31.61
2018-12-13T01:58:12.106Z,32.85
2018-12-13T02:00:19.496Z,32.73
2018-12-13T02:02:26.397Z,33.38
2018-12-13T02:04:33.172Z,32.96
2018-12-13T02:06:40.213Z,32.03
2018-12-13T02:08:47.132Z,32.56
2018-12-13T02:10:54.026Z,32.77
2018-12-13T02:13:00.754Z,32.47
2018-12-13T02:15:08.160Z,32.94
2018-12-13T02:17:14.868Z,32.92
2018-12-13T02:19:21.767Z,32.48
2018-12-13T02:21:28.513Z,32.97
2018-12-13T02:23:35.309Z,32.53
2018-12-13T02:25:42.558Z,32.56
2018-12-13T02:27:49.282Z,33.20
2018-12-13T02:29:56.242Z,32.77
2018-12-13T02:32:03.024Z,33.29
2018-12-13T02:34:09.997Z,33.13
2018-12-13T02:36:17.317Z,32.87
2018-12-13T02:38:24.137Z,33.29
2018-12-13T02:40:30.897Z,33.03
2018-12-13T02:42:37.736Z,33.34
2018-12-13T02:44:44.518Z,33.17
2018-12-13T02:46:51.300Z,33.29
2018-12-13T02:49:07.847Z,33.01
2018-12-13T02:51:14.848Z,32.48
2018-12-13T02:53:21.589Z,33.07
2018-12-13T02:55:28.296Z,32.95
2018-12-13T02:57:36.211Z,32.95
2018-12-13T02:59:42.977Z,32.75
2018-12-13T03:01:49.960Z,32.27
2018-12-13T03:03:56.881Z,33.32
2018-12-13T03:06:03.532Z,32.40
2018-12-13T03:08:10.425Z,33.14
2018-12-13T03:10:17.385Z,33.11
2018-12-13T03:12:24.222Z,32.50
2018-12-13T03:14:30.778Z,33.22
2018-12-13T03:16:37.542Z,32.69
2018-12-13T03:18:44.540Z,32.62
2018-12-13T03:20:51.359Z,33.42
2018-12-13T03:22:58.242Z,32.89
2018-12-13T03:25:05.352Z,32.61
2018-12-13T03:27:12.454Z,33.09
2018-12-13T03:29:19.249Z,33.39
2018-12-13T03:31:26.293Z,33.13
2018-12-13T03:33:33.382Z,32.87
2018-12-13T03:35:40.184Z,33.14
2018-12-13T03:37:46.941Z,33.06
2018-12-13T03:39:53.883Z,33.61
2018-12-13T03:42:00.738Z,33.61
2018-12-13T03:44:08.007Z,33.64
2018-12-13T03:46:15.196Z,33.70
2018-12-13T03:48:21.935Z,33.71
2018-12-13T03:50:28.780Z,33.59
2018-12-13T03:52:35.693Z,33.01
2018-12-13T03:54:42.732Z,32.91
2018-12-13T03:56:49.534Z,33.37
2018-12-13T03:58:56.580Z,33.36
2018-12-13T04:01:03.469Z,33.13
2018-12-13T04:03:10.686Z,32.73
2018-12-13T04:05:17.557Z,33.06
2018-12-13T04:07:27.723Z,33.26
2018-12-13T04:09:33.342Z,32.78
2018-12-13T04:11:40.036Z,32.98
2018-12-13T04:13:46.726Z,32.58
2018-12-13T04:15:53.783Z,32.99
2018-12-13T04:18:01.248Z,32.70
2018-12-13T04:20:08.185Z,32.42
2018-12-13T04:22:14.848Z,32.33
2018-12-13T04:24:21.660Z,32.66
2018-12-13T04:26:28.525Z,32.55
2018-12-13T04:28:35.397Z,32.24
2018-12-13T04:30:42.413Z,32.91
2018-12-13T04:32:49.181Z,32.83
2018-12-13T04:34:55.887Z,33.04
2018-12-13T04:37:02.580Z,32.72
2018-12-13T04:39:10.352Z,32.46
2018-12-13T04:41:17.209Z,32.73
2018-12-13T04:43:24.275Z,32.53
2018-12-13T04:45:34.038Z,33.06
2018-12-13T04:47:40.831Z,32.38
2018-12-13T04:49:47.813Z,32.93
2018-12-13T04:51:54.893Z,32.50
2018-12-13T04:54:01.759Z,33.25
2018-12-13T04:56:08.679Z,32.67
2018-12-13T04:58:15.548Z,33.51
2018-12-13T05:00:22.400Z,32.92
2018-12-13T05:02:29.258Z,32.79
2018-12-13T05:04:36.585Z,32.80
2018-12-13T05:06:43.253Z,32.53
2018-12-13T05:08:49.873Z,31.82
2018-12-13T05:10:57.389Z,31.31
2018-12-13T05:13:04.220Z,30.81
2018-12-13T05:15:11.161Z,31.68
2018-12-13T05:17:18.118Z,31.19
2018-12-13T05:19:24.885Z,30.93
2018-12-13T05:21:31.780Z,30.69
2018-12-13T05:23:38.586Z,29.83
2018-12-13T05:25:45.529Z,30.12
2018-12-13T05:27:52.442Z,31.13
2018-12-13T05:29:59.288Z,31.89
2018-12-13T05:32:07.110Z,31.72
2018-12-13T05:34:13.771Z,31.57
2018-12-13T05:36:20.560Z,31.45
2018-12-13T05:38:28.666Z,31.53
2018-12-13T05:40:35.722Z,31.78
2018-12-13T05:42:42.708Z,32.56
2018-12-13T05:44:49.515Z,31.87
2018-12-13T05:46:56.693Z,31.64
2018-12-13T05:49:03.533Z,32.16
2018-12-13T05:51:10.535Z,32.26
2018-12-13T05:53:17.283Z,32.05
2018-12-13T05:55:24.212Z,31.86
2018-12-13T05:57:31.061Z,32.19
2018-12-13T05:59:37.731Z,32.69
2018-12-13T06:01:44.973Z,32.01
2018-12-13T06:03:51.748Z,32.55
2018-12-13T06:05:58.883Z,32.35
2018-12-13T06:08:05.982Z,32.89
2018-12-13T06:10:12.834Z,32.58
2018-12-13T06:12:19.530Z,32.56
2018-12-13T06:14:27.314Z,31.80
2018-12-13T06:16:34.267Z,31.08
2018-12-13T06:18:41.186Z,31.53
2018-12-13T06:20:48.007Z,31.52
2018-12-13T06:22:54.893Z,31.57
2018-12-13T06:25:01.674Z,31.07
2018-12-13T06:27:08.617Z,30.60
2018-12-13T06:29:15.405Z,30.48
2018-12-13T06:31:22.575Z,31.58
2018-12-13T06:33:29.607Z,30.11
2018-12-13T06:35:36.454Z,29.93
2018-12-13T06:37:43.510Z,30.08
2018-12-13T06:39:50.262Z,30.92
2018-12-13T06:41:56.971Z,30.92
2018-12-13T06:44:03.949Z,31.21
2018-12-13T06:46:10.645Z,31.31
2018-12-13T06:48:17.521Z,31.33
2018-12-13T06:50:24.220Z,31.49
2018-12-13T06:52:31.058Z,31.60
2018-12-13T06:54:38.034Z,32.08
2018-12-13T06:56:44.802Z,32.06
2018-12-13T06:58:51.681Z,31.50
2018-12-13T07:00:58.646Z,31.93
2018-12-13T07:03:05.615Z,32.08
2018-12-13T07:05:12.860Z,32.37
2018-12-13T07:07:20.967Z,31.96
2018-12-13T07:09:28.475Z,32.08
2018-12-13T07:11:36.067Z,31.40
2018-12-13T07:13:42.925Z,31.12
2018-12-13T07:15:49.650Z,32.12
2018-12-13T07:17:56.537Z,31.11
2018-12-13T07:20:03.906Z,31.10
2018-12-13T07:22:10.706Z,32.61
2018-12-13T07:24:17.514Z,30.65
2018-12-13T07:26:24.474Z,30.38
2018-12-13T07:28:31.850Z,29.93
2018-12-13T07:30:38.869Z,30.27
2018-12-13T07:32:45.737Z,30.69
2018-12-13T07:34:52.782Z,31.66
2018-12-13T07:36:59.425Z,31.46
2018-12-13T07:39:08.390Z,30.63
2018-12-13T07:41:15.695Z,30.83
2018-12-13T07:43:22.620Z,31.24
2018-12-13T07:45:29.321Z,31.41
2018-12-13T07:47:36.012Z,31.53
2018-12-13T07:49:43.105Z,31.82
2018-12-13T07:51:49.769Z,31.87
2018-12-13T07:53:56.434Z,31.22
2018-12-13T07:56:03.372Z,31.69
2018-12-13T07:58:10.807Z,31.69
2018-12-13T08:00:17.813Z,31.91
2018-12-13T08:02:24.498Z,31.71
2018-12-13T08:04:31.122Z,32.22
2018-12-13T08:06:37.829Z,31.79
2018-12-13T08:08:44.627Z,32.01
2018-12-13T08:10:51.394Z,31.38
2018-12-13T08:12:58.018Z,31.49
2018-12-13T08:15:05.092Z,31.24
2018-12-13T08:17:11.899Z,31.30
2018-12-13T08:19:18.605Z,30.92
2018-12-13T08:21:25.545Z,32.20
2018-12-13T08:23:32.396Z,30.14
2018-12-13T08:25:39.074Z,30.05
2018-12-13T08:27:45.869Z,31.18
2018-12-13T08:29:52.603Z,31.55
2018-12-13T08:31:59.447Z,31.18
2018-12-13T08:34:06.413Z,31.10
2018-12-13T08:36:13.390Z,30.69
2018-12-13T08:38:20.208Z,31.16
2018-12-13T08:40:27.237Z,31.54
2018-12-13T08:42:34.325Z,31.30
2018-12-13T08:44:40.955Z,31.14
2018-12-13T08:46:47.817Z,31.81
2018-12-13T08:48:54.737Z,32.01
2018-12-13T08:51:01.529Z,31.62
2018-12-13T08:53:08.472Z,31.49
2018-12-13T08:55:15.342Z,31.72
2018-12-13T08:57:22.052Z,31.11
2018-12-13T08:59:29.477Z,31.87
2018-12-13T09:01:36.418Z,31.02
2018-12-13T09:03:43.295Z,30.91
2018-12-13T09:05:50.390Z,31.28
2018-12-13T09:07:57.373Z,31.73
2018-12-13T09:10:04.486Z,30.56
2018-12-13T09:12:11.394Z,30.88
2018-12-13T09:14:18.259Z,32.25
2018-12-13T09:16:31.278Z,31.19
2018-12-13T09:18:34.160Z,31.63
2018-12-13T09:20:42.000Z,31.79
2018-12-13T09:22:48.850Z,31.45
2018-12-13T09:24:55.865Z,31.48
2018-12-13T09:27:02.882Z,31.54
2018-12-13T09:29:09.781Z,31.49
2018-12-13T09:31:16.639Z,30.99
2018-12-13T09:33:23.564Z,31.37
2018-12-13T09:35:30.380Z,30.95
2018-12-13T09:37:37.354Z,30.74
2018-12-13T09:39:44.166Z,31.44
2018-12-13T09:41:51.154Z,30.82
2018-12-13T09:43:58.000Z,30.61
2018-12-13T09:46:05.222Z,30.14
2018-12-13T09:48:12.050Z,30.86
2018-12-13T09:50:18.890Z,30.55
2018-12-13T09:52:25.788Z,30.24
2018-12-13T09:54:32.898Z,30.36
2018-12-13T09:56:39.844Z,30.81
2018-12-13T09:58:47.018Z,30.69
2018-12-13T10:00:53.725Z,30.87
2018-12-13T10:03:00.426Z,31.12
2018-12-13T10:05:07.537Z,30.80
2018-12-13T10:07:14.381Z,31.22
2018-12-13T10:09:22.050Z,31.07
2018-12-13T10:11:28.705Z,31.51
2018-12-13T10:13:35.521Z,31.07
2018-12-13T10:15:42.410Z,31.30
2018-12-13T10:17:49.230Z,31.76
2018-12-13T10:19:56.244Z,31.54
2018-12-13T10:22:03.270Z,31.16
2018-12-13T10:24:10.071Z,31.62
2018-12-13T10:26:17.139Z,31.38
2018-12-13T10:28:24.171Z,32.00
2018-12-13T10:30:30.886Z,32.13
2018-12-13T10:32:37.826Z,31.90
2018-12-13T10:34:44.726Z,32.15
2018-12-13T10:36:51.795Z,32.03
2018-12-13T10:38:58.431Z,32.29
2018-12-13T10:41:05.345Z,31.91
2018-12-13T10:43:12.250Z,32.17
2018-12-13T10:45:19.166Z,31.50
2018-12-13T10:47:25.834Z,31.87
2018-12-13T10:49:33.606Z,31.66
2018-12-13T10:51:40.701Z,31.08
2018-12-13T10:53:48.027Z,30.76
2018-12-13T10:55:55.218Z,31.10
2018-12-13T10:58:02.054Z,31.25
2018-12-13T11:00:14.358Z,30.37
2018-12-13T11:02:26.216Z,29.95
2018-12-13T11:04:33.329Z,30.58
2018-12-13T11:06:40.174Z,30.30
2018-12-13T11:08:47.769Z,30.80
2018-12-13T11:10:54.371Z,29.78
2018-12-13T11:13:01.765Z,29.71
2018-12-13T11:15:08.582Z,29.61
2018-12-13T11:17:15.493Z,30.55
2018-12-13T11:19:22.587Z,30.81
2018-12-13T11:21:29.515Z,30.73
2018-12-13T11:23:36.546Z,30.45
2018-12-13T11:25:43.501Z,30.90
2018-12-13T11:28:28.047Z,30.95
2018-12-13T11:30:35.019Z,31.62
2018-12-13T11:32:42.713Z,31.45
2018-12-13T11:34:49.597Z,30.96
2018-12-13T11:36:56.331Z,31.22
2018-12-13T11:39:05.920Z,31.14
2018-12-13T11:41:12.933Z,31.07
2018-12-13T11:43:19.956Z,31.30
2018-12-13T11:45:27.082Z,31.28
2018-12-13T11:47:34.546Z,31.70
2018-12-13T11:49:41.421Z,31.45
2018-12-13T11:51:48.598Z,30.98
2018-12-13T11:53:55.823Z,30.90
2018-12-13T11:56:02.431Z,31.56
2018-12-13T11:58:12.530Z,31.00
2018-12-13T12:00:19.299Z,31.20
2018-12-13T12:02:26.269Z,30.78
2018-12-13T12:04:33.173Z,31.53
2018-12-13T12:06:40.065Z,31.22
2018-12-13T12:08:46.689Z,32.02
2018-12-13T12:10:53.530Z,31.63
2018-12-13T12:13:01.058Z,31.85
2018-12-13T12:15:08.493Z,30.54
2018-12-13T12:17:15.405Z,31.09
2018-12-13T12:19:22.437Z,30.81
2018-12-13T12:21:29.344Z,30.46
2018-12-13T12:23:36.222Z,30.93
2018-12-13T12:25:43.053Z,29.75
2018-12-13T12:27:49.720Z,29.61
2018-12-13T12:29:56.379Z,30.12
2018-12-13T12:32:03.352Z,30.22
2018-12-13T12:34:10.221Z,29.77
2018-12-13T12:36:17.306Z,29.99
2018-12-13T12:38:24.092Z,30.12
2018-12-13T12:40:30.938Z,29.92
2018-12-13T12:42:38.263Z,29.80
2018-12-13T12:44:44.945Z,29.82
2018-12-13T12:46:51.806Z,28.81
2018-12-13T12:48:58.729Z,29.95
2018-12-13T12:51:05.745Z,29.26
2018-12-13T12:53:12.512Z,29.12
2018-12-13T12:55:19.747Z,29.12
2018-12-13T12:57:26.423Z,30.48
2018-12-13T12:59:33.114Z,30.11
2018-12-13T13:01:40.032Z,29.93
2018-12-13T13:03:46.629Z,29.31
2018-12-13T13:05:53.830Z,30.34
2018-12-13T13:08:00.625Z,29.48
2018-12-13T13:10:08.924Z,29.55
2018-12-13T13:12:16.177Z,30.23
2018-12-13T13:14:23.267Z,29.50
2018-12-13T13:16:30.217Z,30.13
2018-12-13T13:18:39.141Z,29.70
2018-12-13T13:20:45.877Z,29.29
2018-12-13T13:22:52.727Z,29.29
2018-12-13T13:24:59.473Z,30.08
2018-12-13T13:27:06.357Z,30.68
2018-12-13T13:29:13.540Z,31.29
2018-12-13T13:31:21.259Z,30.66
2018-12-13T13:33:28.193Z,30.79
2018-12-13T13:35:34.981Z,31.54
2018-12-13T13:37:42.221Z,32.03
2018-12-13T13:39:48.901Z,31.13
2018-12-13T13:41:55.962Z,30.74
2018-12-13T13:44:02.799Z,29.85
2018-12-13T13:46:09.730Z,31.19
2018-12-13T13:48:16.316Z,30.74
2018-12-13T13:50:22.984Z,29.72
2018-12-13T13:52:29.859Z,29.55
2018-12-13T13:54:36.786Z,29.94
2018-12-13T13:56:43.844Z,29.52
2018-12-13T13:58:50.716Z,30.64
2018-12-13T14:00:57.849Z,30.65
2018-12-13T14:03:04.618Z,30.93
2018-12-13T14:05:12.063Z,31.04
2018-12-13T14:07:18.988Z,31.17
2018-12-13T14:09:25.985Z,31.33
2018-12-13T14:11:32.689Z,31.05
2018-12-13T14:13:39.620Z,31.20
2018-12-13T14:15:47.071Z,31.27
2018-12-13T14:17:53.740Z,31.02
2018-12-13T14:20:00.569Z,31.47
2018-12-13T14:22:07.392Z,31.45
2018-12-13T14:24:14.119Z,31.11
2018-12-13T14:26:21.001Z,31.07
2018-12-13T14:28:27.789Z,30.87
2018-12-13T14:30:34.625Z,31.14
2018-12-13T14:32:41.429Z,30.39
2018-12-13T14:34:48.364Z,31.23
2018-12-13T14:36:55.113Z,31.21
2018-12-13T14:39:02.382Z,29.40
2018-12-13T14:41:09.412Z,29.24
2018-12-13T14:43:16.253Z,30.04
2018-12-13T14:45:22.901Z,28.89
2018-12-13T14:47:29.896Z,30.33
2018-12-13T14:49:36.978Z,30.23
2018-12-13T14:51:43.801Z,29.34
2018-12-13T14:53:51.285Z,30.12
2018-12-13T14:55:58.229Z,31.21
2018-12-13T14:58:05.045Z,31.04
2018-12-13T15:00:14.657Z,30.88
2018-12-13T15:02:21.461Z,30.79
2018-12-13T15:04:28.225Z,30.64
2018-12-13T15:06:35.274Z,30.66
2018-12-13T15:08:41.805Z,31.50
2018-12-13T15:10:48.972Z,30.83
2018-12-13T15:12:55.572Z,31.49
2018-12-13T15:15:02.472Z,31.03
2018-12-13T15:17:09.756Z,30.88
2018-12-13T15:19:16.626Z,31.01
2018-12-13T15:21:23.588Z,30.67
2018-12-13T15:23:30.407Z,31.11
2018-12-13T15:25:37.243Z,31.05
2018-12-13T15:27:43.936Z,30.99
2018-12-13T15:29:50.686Z,30.95
2018-12-13T15:31:59.601Z,31.23
2018-12-13T15:34:07.107Z,31.34
2018-12-13T15:36:13.739Z,30.43
2018-12-13T15:38:21.244Z,31.76
2018-12-13T15:40:28.194Z,30.43
2018-12-13T15:42:35.758Z,29.47
2018-12-13T15:44:45.352Z,30.97
2018-12-13T15:46:52.526Z,31.64
2018-12-13T15:48:59.419Z,31.44
2018-12-13T15:51:06.467Z,31.02
2018-12-13T15:53:13.444Z,30.84
2018-12-13T15:55:20.320Z,31.88
2018-12-13T15:57:27.357Z,31.90
2018-12-13T15:59:35.585Z,31.63
2018-12-13T16:01:42.258Z,32.04
2018-12-13T16:03:49.176Z,31.75
2018-12-13T16:05:56.009Z,32.20
2018-12-13T16:08:03.123Z,31.96
2018-12-13T16:10:09.748Z,32.51
2018-12-13T16:12:16.790Z,31.80
2018-12-13T16:14:23.699Z,31.83
2018-12-13T16:16:30.765Z,30.55
2018-12-13T16:20:58.753Z,30.33
2018-12-13T16:23:06.391Z,29.69
2018-12-13T16:25:14.002Z,30.59
2018-12-13T16:27:21.415Z,30.06
2018-12-13T16:29:28.540Z,30.08
2018-12-13T16:31:35.497Z,30.33
2018-12-13T16:33:42.377Z,31.03
2018-12-13T16:35:49.990Z,30.92
2018-12-13T16:37:57.018Z,31.42
2018-12-13T16:40:10.019Z,30.40
2018-12-13T16:42:12.730Z,29.75
2018-12-13T16:44:19.623Z,29.46
2018-12-13T16:46:26.445Z,29.71
2018-12-13T16:48:33.082Z,30.92
2018-12-13T16:50:39.750Z,31.70
2018-12-13T16:52:46.802Z,31.48
2018-12-13T16:54:53.402Z,31.64
2018-12-13T16:57:00.365Z,32.28
2018-12-13T16:59:07.693Z,31.99
2018-12-13T17:01:14.737Z,32.08
2018-12-13T17:03:56.986Z,33.08
2018-12-13T17:06:03.891Z,32.91
2018-12-13T17:08:10.797Z,31.69
2018-12-13T17:10:17.463Z,31.35
2018-12-13T17:12:24.470Z,31.49
2018-12-13T17:14:31.498Z,32.36
2018-12-13T17:16:38.676Z,31.29
2018-12-13T17:18:45.581Z,32.06
2018-12-13T17:20:52.814Z,32.97
2018-12-13T17:22:59.530Z,33.30
2018-12-13T17:25:06.392Z,32.83
2018-12-13T17:27:13.261Z,32.17
2018-12-13T17:29:19.845Z,33.93
2018-12-13T17:31:26.621Z,32.89
2018-12-13T17:33:33.511Z,32.88
2018-12-13T17:35:40.301Z,31.42
2018-12-13T17:37:47.157Z,31.44
2018-12-13T17:39:54.257Z,30.57
2018-12-13T17:42:01.312Z,30.67
2018-12-13T17:44:08.084Z,31.24
2018-12-13T17:46:14.967Z,31.19
2018-12-13T17:48:22.011Z,30.94
2018-12-13T17:50:29.032Z,31.70
2018-12-13T17:52:35.778Z,31.71
2018-12-13T17:54:42.674Z,31.96
2018-12-13T17:56:49.683Z,31.62
2018-12-13T17:58:56.808Z,32.23
2018-12-13T18:01:03.686Z,31.89
2018-12-13T18:03:10.607Z,32.28
2018-12-13T18:05:17.486Z,32.60
2018-12-13T18:07:25.745Z,31.68
2018-12-13T18:09:33.569Z,31.98
2018-12-13T18:11:40.878Z,32.18
2018-12-13T18:13:47.505Z,32.14
2018-12-13T18:15:55.547Z,32.52
2018-12-13T18:18:02.297Z,32.09
2018-12-13T18:20:10.091Z,32.03
2018-12-13T18:22:17.097Z,31.91
2018-12-13T18:24:23.903Z,32.57
2018-12-13T18:26:31.074Z,32.62
2018-12-13T18:28:37.811Z,32.33
2018-12-13T18:30:44.452Z,32.90
2018-12-13T18:32:51.447Z,32.89
2018-12-13T18:34:59.135Z,32.53
2018-12-13T18:37:06.086Z,33.41
2018-12-13T18:39:12.896Z,32.80
2018-12-13T18:41:19.713Z,33.52
2018-12-13T18:43:26.567Z,33.25
2018-12-13T18:45:37.457Z,33.86
2018-12-13T18:47:44.270Z,33.65
2018-12-13T18:49:51.098Z,34.20
2018-12-13T18:51:58.122Z,34.20
2018-12-13T18:54:04.620Z,34.63
2018-12-13T18:56:11.841Z,34.52
2018-12-13T18:58:18.934Z,34.02
2018-12-13T19:00:25.749Z,33.82
2018-12-13T19:02:32.591Z,33.89
2018-12-13T19:04:39.541Z,34.11
2018-12-13T19:06:46.596Z,34.01
2018-12-13T19:08:53.388Z,34.06
2018-12-13T19:11:00.372Z,35.75
2018-12-13T19:13:07.436Z,34.20
2018-12-13T19:15:14.601Z,34.96
2018-12-13T19:17:21.718Z,34.11
2018-12-13T19:19:28.361Z,33.94
2018-12-13T19:21:35.686Z,34.15
2018-12-13T19:23:42.749Z,33.21
2018-12-13T19:25:49.696Z,34.25
2018-12-13T19:27:56.802Z,34.24
2018-12-13T19:30:03.878Z,33.22
2018-12-13T19:32:10.627Z,34.09
2018-12-13T19:34:16.906Z,34.81
2018-12-13T19:36:24.002Z,33.27
2018-12-13T19:38:30.806Z,31.25
2018-12-13T19:40:37.629Z,31.49
2018-12-13T19:42:44.516Z,32.18
2018-12-13T19:44:51.510Z,31.79
2018-12-13T19:46:58.075Z,32.25
2018-12-13T19:49:05.321Z,32.57
2018-12-13T19:51:12.637Z,33.79
2018-12-13T19:53:19.825Z,32.77
2018-12-13T19:55:26.585Z,32.03
2018-12-13T19:57:33.529Z,32.84
2018-12-13T19:59:40.393Z,33.01
2018-12-13T20:01:47.309Z,33.18
2018-12-13T20:03:54.406Z,33.28
2018-12-13T20:06:01.821Z,33.43
2018-12-13T20:08:08.493Z,33.43
2018-12-13T20:10:15.466Z,33.72
2018-12-13T20:12:23.115Z,34.99
2018-12-13T20:14:29.809Z,34.17
2018-12-13T20:16:36.414Z,33.33
2018-12-13T20:18:43.189Z,33.35
2018-12-13T20:20:49.988Z,33.71
2018-12-13T20:22:56.638Z,33.77
2018-12-13T20:25:03.561Z,34.20
2018-12-13T20:27:10.589Z,33.70
2018-12-13T20:29:18.158Z,33.18
2018-12-13T20:31:25.350Z,34.48
2018-12-13T20:33:32.135Z,35.03
2018-12-13T20:35:39.174Z,34.84
2018-12-13T20:37:45.731Z,33.29
2018-12-13T20:39:52.987Z,32.40
2018-12-13T20:41:59.835Z,32.79
2018-12-13T20:44:06.720Z,31.66
2018-12-13T20:46:13.745Z,32.57
2018-12-13T20:48:21.650Z,32.72
2018-12-13T20:50:29.056Z,32.33
2018-12-13T20:52:36.697Z,33.26
2018-12-13T20:54:43.781Z,33.63
2018-12-13T20:56:51.237Z,33.21
2018-12-13T20:58:58.634Z,33.73
2018-12-13T21:01:07.075Z,33.30
2018-12-13T21:03:14.150Z,33.60
2018-12-13T21:05:21.342Z,33.05
2018-12-13T21:07:32.983Z,33.57
2018-12-13T21:09:39.722Z,33.54
2018-12-13T21:11:46.626Z,33.53
2018-12-13T21:13:53.551Z,33.95
2018-12-13T21:16:00.395Z,33.60
2018-12-13T21:18:07.458Z,33.18
2018-12-13T21:20:14.459Z,33.45
2018-12-13T21:22:21.397Z,33.36
2018-12-13T21:24:28.582Z,33.23
2018-12-13T21:26:35.578Z,33.01
2018-12-13T21:28:42.717Z,33.94
2018-12-13T21:30:49.176Z,33.40
2018-12-13T21:32:55.625Z,33.47
2018-12-13T21:35:01.968Z,33.18
2018-12-13T21:37:08.573Z,33.66
2018-12-13T21:39:16.153Z,33.93
2018-12-13T21:41:23.048Z,33.48
2018-12-13T21:43:29.994Z,33.47
2018-12-13T21:45:37.084Z,34.18
2018-12-13T21:47:44.289Z,34.10
2018-12-13T21:49:51.790Z,33.66
2018-12-13T21:51:58.765Z,33.46
2018-12-13T21:54:06.479Z,33.95
2018-12-13T21:56:13.380Z,33.26
2018-12-13T21:58:20.361Z,33.27
2018-12-13T22:00:27.447Z,33.61
2018-12-13T22:02:35.030Z,33.42
2018-12-13T22:04:42.017Z,33.13
2018-12-13T22:06:48.897Z,33.36
2018-12-13T22:08:55.862Z,32.88
2018-12-13T22:11:02.788Z,32.73
2018-12-13T22:13:09.678Z,33.10
2018-12-13T22:15:16.342Z,33.60
2018-12-13T22:17:22.849Z,33.27
2018-12-13T22:19:29.220Z,32.73
2018-12-13T22:21:36.192Z,33.53
2018-12-13T22:23:42.603Z,33.58
2018-12-13T22:25:49.305Z,33.04
2018-12-13T22:27:55.649Z,33.26
2018-12-13T22:30:02.406Z,33.69
2018-12-13T22:32:09.338Z,33.55
2018-12-13T22:34:16.449Z,33.31
2018-12-13T22:36:23.213Z,33.15
2018-12-13T22:38:29.923Z,33.55
2018-12-13T22:40:36.814Z,34.03
2018-12-13T22:42:43.585Z,33.88
2018-12-13T22:44:51.030Z,33.56
2018-12-13T22:46:58.010Z,33.53
2018-12-13T22:49:05.272Z,33.46
2018-12-13T22:51:12.378Z,33.70
2018-12-13T22:53:19.339Z,33.24
2018-12-13T22:55:27.681Z,33.59
2018-12-13T22:57:34.858Z,33.38
2018-12-13T22:59:41.981Z,33.36
2018-12-13T23:01:48.982Z,33.42
2018-12-13T23:03:56.767Z,33.62
2018-12-13T23:06:03.720Z,33.44
2018-12-13T23:08:10.584Z,33.24
2018-12-13T23:10:17.874Z,33.48
2018-12-13T23:12:24.756Z,33.90
2018-12-13T23:14:31.993Z,33.25
2018-12-13T23:16:38.987Z,33.34
2018-12-13T23:18:46.851Z,33.33
2018-12-13T23:20:55.365Z,33.66
2018-12-13T23:23:02.410Z,33.40
2018-12-13T23:25:09.481Z,32.50
2018-12-13T23:27:16.735Z,32.43
2018-12-13T23:29:23.791Z,33.28
2018-12-13T23:31:31.564Z,30.95
2018-12-13T23:33:38.970Z,32.85
2018-12-13T23:35:45.859Z,33.16
2018-12-13T23:37:52.350Z,32.58
2018-12-13T23:39:58.818Z,32.66
2018-12-13T23:42:05.262Z,31.97
2018-12-13T23:44:12.630Z,32.67
2018-12-13T23:46:19.275Z,32.18
2018-12-13T23:48:25.660Z,32.91
2018-12-13T23:50:32.181Z,32.67
2018-12-13T23:52:39.130Z,32.85
2018-12-13T23:54:46.173Z,31.80
2018-12-13T23:56:53.245Z,32.79
2018-12-13T23:59:01.068Z,32.93
